sensor_id;sensor_type;location;lat;lon;timestamp;P1;durP1;ratioP1;P2;durP2;ratioP2
11039;SDS011;5573;49.592;8.662;2023-05-16T00:01:16;429.58;;;405.10;;
11039;SDS011;5573;49.592;8.662;2023-05-16T00:03:45;408.85;;;385.40;;
11039;SDS011;5573;49.592;8.662;2023-05-16T00:06:13;416.95;;;393.27;;
11039;SDS011;5573;49.592;8.662;2023-05-16T00:08:41;404.02;;;381.27;;
11039;SDS011;5573;49.592;8.662;2023-05-16T00:11:10;395.80;;;373.85;;
11039;SDS011;5573;49.592;8.662;2023-05-16T00:13:38;419.95;;;395.92;;
11039;SDS011;5573;49.592;8.662;2023-05-16T00:16:07;420.92;;;396.63;;
11039;SDS011;5573;49.592;8.662;2023-05-16T00:18:37;426.63;;;401.88;;
11039;SDS011;5573;49.592;8.662;2023-05-16T00:21:05;423.48;;;399.48;;
11039;SDS011;5573;49.592;8.662;2023-05-16T00:23:33;430.60;;;405.45;;
11039;SDS011;5573;49.592;8.662;2023-05-16T00:26:00;391.73;;;369.33;;
11039;SDS011;5573;49.592;8.662;2023-05-16T00:28:30;408.05;;;384.85;;
11039;SDS011;5573;49.592;8.662;2023-05-16T00:30:58;413.63;;;389.77;;
11039;SDS011;5573;49.592;8.662;2023-05-16T00:33:27;428.55;;;404.08;;
11039;SDS011;5573;49.592;8.662;2023-05-16T00:35:54;413.45;;;389.15;;
11039;SDS011;5573;49.592;8.662;2023-05-16T00:38:23;411.27;;;388.20;;
11039;SDS011;5573;49.592;8.662;2023-05-16T00:40:51;418.13;;;394.52;;
11039;SDS011;5573;49.592;8.662;2023-05-16T00:43:19;399.83;;;376.95;;
11039;SDS011;5573;49.592;8.662;2023-05-16T00:45:50;404.40;;;381.48;;
11039;SDS011;5573;49.592;8.662;2023-05-16T00:48:18;410.38;;;386.90;;
11039;SDS011;5573;49.592;8.662;2023-05-16T00:50:46;423.52;;;399.42;;
11039;SDS011;5573;49.592;8.662;2023-05-16T00:53:14;428.50;;;404.15;;
11039;SDS011;5573;49.592;8.662;2023-05-16T00:55:42;411.27;;;388.13;;
11039;SDS011;5573;49.592;8.662;2023-05-16T00:58:11;410.60;;;386.88;;
11039;SDS011;5573;49.592;8.662;2023-05-16T01:00:39;417.80;;;393.92;;
11039;SDS011;5573;49.592;8.662;2023-05-16T01:03:08;413.77;;;390.63;;
11039;SDS011;5573;49.592;8.662;2023-05-16T01:05:38;385.90;;;364.25;;
11039;SDS011;5573;49.592;8.662;2023-05-16T01:08:06;393.65;;;371.27;;
11039;SDS011;5573;49.592;8.662;2023-05-16T01:10:35;402.45;;;380.05;;
11039;SDS011;5573;49.592;8.662;2023-05-16T01:13:10;408.77;;;385.85;;
11039;SDS011;5573;49.592;8.662;2023-05-16T01:15:43;398.35;;;375.73;;
11039;SDS011;5573;49.592;8.662;2023-05-16T01:18:21;406.20;;;383.27;;
11039;SDS011;5573;49.592;8.662;2023-05-16T01:20:55;413.02;;;389.77;;
11039;SDS011;5573;49.592;8.662;2023-05-16T01:23:35;410.65;;;386.65;;
11039;SDS011;5573;49.592;8.662;2023-05-16T01:26:12;399.13;;;376.27;;
11039;SDS011;5573;49.592;8.662;2023-05-16T01:28:42;395.30;;;373.20;;
11039;SDS011;5573;49.592;8.662;2023-05-16T01:31:11;429.00;;;404.48;;
11039;SDS011;5573;49.592;8.662;2023-05-16T01:33:39;418.83;;;395.25;;
11039;SDS011;5573;49.592;8.662;2023-05-16T01:36:09;410.50;;;386.95;;
11039;SDS011;5573;49.592;8.662;2023-05-16T01:38:40;400.10;;;377.50;;
11039;SDS011;5573;49.592;8.662;2023-05-16T01:41:17;383.52;;;361.50;;
11039;SDS011;5573;49.592;8.662;2023-05-16T01:43:50;381.77;;;360.45;;
11039;SDS011;5573;49.592;8.662;2023-05-16T01:46:23;407.77;;;385.35;;
11039;SDS011;5573;49.592;8.662;2023-05-16T01:48:57;381.95;;;359.85;;
11039;SDS011;5573;49.592;8.662;2023-05-16T01:51:32;397.10;;;374.73;;
11039;SDS011;5573;49.592;8.662;2023-05-16T01:54:05;408.33;;;385.35;;
11039;SDS011;5573;49.592;8.662;2023-05-16T01:56:40;385.48;;;364.00;;
11039;SDS011;5573;49.592;8.662;2023-05-16T01:59:13;411.52;;;388.45;;
11039;SDS011;5573;49.592;8.662;2023-05-16T02:01:42;396.58;;;374.15;;
11039;SDS011;5573;49.592;8.662;2023-05-16T02:04:09;417.50;;;393.80;;
11039;SDS011;5573;49.592;8.662;2023-05-16T02:06:40;382.65;;;360.77;;
11039;SDS011;5573;49.592;8.662;2023-05-16T02:09:08;396.45;;;374.05;;
11039;SDS011;5573;49.592;8.662;2023-05-16T02:11:40;392.02;;;369.35;;
11039;SDS011;5573;49.592;8.662;2023-05-16T02:14:08;395.83;;;373.70;;
11039;SDS011;5573;49.592;8.662;2023-05-16T02:16:37;405.10;;;382.33;;
11039;SDS011;5573;49.592;8.662;2023-05-16T02:19:04;388.02;;;366.67;;
11039;SDS011;5573;49.592;8.662;2023-05-16T02:21:33;388.70;;;367.05;;
11039;SDS011;5573;49.592;8.662;2023-05-16T02:24:00;421.88;;;397.58;;
11039;SDS011;5573;49.592;8.662;2023-05-16T02:26:28;362.05;;;341.60;;
11039;SDS011;5573;49.592;8.662;2023-05-16T02:28:57;382.92;;;361.52;;
11039;SDS011;5573;49.592;8.662;2023-05-16T02:31:26;408.98;;;386.40;;
11039;SDS011;5573;49.592;8.662;2023-05-16T02:33:54;377.73;;;357.10;;
11039;SDS011;5573;49.592;8.662;2023-05-16T02:36:22;398.80;;;376.33;;
11039;SDS011;5573;49.592;8.662;2023-05-16T02:38:50;399.15;;;376.08;;
11039;SDS011;5573;49.592;8.662;2023-05-16T02:41:20;390.33;;;368.70;;
11039;SDS011;5573;49.592;8.662;2023-05-16T02:43:48;383.42;;;361.80;;
11039;SDS011;5573;49.592;8.662;2023-05-16T02:46:24;372.60;;;352.38;;
11039;SDS011;5573;49.592;8.662;2023-05-16T02:48:53;378.05;;;357.23;;
11039;SDS011;5573;49.592;8.662;2023-05-16T02:51:22;376.10;;;355.58;;
11039;SDS011;5573;49.592;8.662;2023-05-16T02:53:51;396.58;;;374.25;;
11039;SDS011;5573;49.592;8.662;2023-05-16T02:56:19;382.02;;;361.10;;
11039;SDS011;5573;49.592;8.662;2023-05-16T02:58:48;373.52;;;352.40;;
11039;SDS011;5573;49.592;8.662;2023-05-16T03:01:16;378.30;;;356.58;;
11039;SDS011;5573;49.592;8.662;2023-05-16T03:03:45;374.85;;;353.88;;
11039;SDS011;5573;49.592;8.662;2023-05-16T03:06:13;367.80;;;347.42;;
11039;SDS011;5573;49.592;8.662;2023-05-16T03:08:41;371.25;;;350.98;;
11039;SDS011;5573;49.592;8.662;2023-05-16T03:11:09;353.08;;;334.17;;
11039;SDS011;5573;49.592;8.662;2023-05-16T03:13:39;332.02;;;313.50;;
11039;SDS011;5573;49.592;8.662;2023-05-16T03:16:07;352.50;;;332.65;;
11039;SDS011;5573;49.592;8.662;2023-05-16T03:18:35;368.90;;;348.77;;
11039;SDS011;5573;49.592;8.662;2023-05-16T03:21:05;346.45;;;327.48;;
11039;SDS011;5573;49.592;8.662;2023-05-16T03:23:33;368.65;;;348.05;;
11039;SDS011;5573;49.592;8.662;2023-05-16T03:26:03;361.20;;;341.02;;
11039;SDS011;5573;49.592;8.662;2023-05-16T03:28:31;345.25;;;326.42;;
11039;SDS011;5573;49.592;8.662;2023-05-16T03:30:59;338.08;;;319.38;;
11039;SDS011;5573;49.592;8.662;2023-05-16T03:33:27;335.83;;;317.65;;
11039;SDS011;5573;49.592;8.662;2023-05-16T03:35:55;317.55;;;300.20;;
11039;SDS011;5573;49.592;8.662;2023-05-16T03:38:25;332.08;;;314.13;;
11039;SDS011;5573;49.592;8.662;2023-05-16T03:40:52;301.73;;;285.40;;
11039;SDS011;5573;49.592;8.662;2023-05-16T03:43:20;334.92;;;316.30;;
11039;SDS011;5573;49.592;8.662;2023-05-16T03:45:48;325.90;;;308.00;;
11039;SDS011;5573;49.592;8.662;2023-05-16T03:48:16;312.88;;;295.65;;
11039;SDS011;5573;49.592;8.662;2023-05-16T03:50:43;296.77;;;280.45;;
11039;SDS011;5573;49.592;8.662;2023-05-16T03:53:12;336.77;;;318.17;;
11039;SDS011;5573;49.592;8.662;2023-05-16T03:55:41;302.75;;;286.25;;
11039;SDS011;5573;49.592;8.662;2023-05-16T03:58:09;308.77;;;292.30;;
11039;SDS011;5573;49.592;8.662;2023-05-16T04:00:37;321.15;;;303.13;;
11039;SDS011;5573;49.592;8.662;2023-05-16T04:03:05;329.27;;;311.17;;
11039;SDS011;5573;49.592;8.662;2023-05-16T04:05:34;316.60;;;299.35;;
11039;SDS011;5573;49.592;8.662;2023-05-16T04:08:02;334.30;;;315.52;;
11039;SDS011;5573;49.592;8.662;2023-05-16T04:10:29;348.30;;;329.38;;
11039;SDS011;5573;49.592;8.662;2023-05-16T04:12:59;335.30;;;316.75;;
11039;SDS011;5573;49.592;8.662;2023-05-16T04:15:26;321.17;;;303.67;;
11039;SDS011;5573;49.592;8.662;2023-05-16T04:17:54;338.45;;;319.85;;
11039;SDS011;5573;49.592;8.662;2023-05-16T04:20:22;345.75;;;327.10;;
11039;SDS011;5573;49.592;8.662;2023-05-16T04:22:50;328.98;;;311.17;;
11039;SDS011;5573;49.592;8.662;2023-05-16T04:25:18;336.85;;;318.05;;
11039;SDS011;5573;49.592;8.662;2023-05-16T04:27:46;329.60;;;311.42;;
11039;SDS011;5573;49.592;8.662;2023-05-16T04:30:16;347.50;;;328.38;;
11039;SDS011;5573;49.592;8.662;2023-05-16T04:32:44;331.45;;;313.25;;
11039;SDS011;5573;49.592;8.662;2023-05-16T04:35:12;339.65;;;320.92;;
11039;SDS011;5573;49.592;8.662;2023-05-16T04:37:40;334.85;;;316.52;;
11039;SDS011;5573;49.592;8.662;2023-05-16T04:40:08;334.20;;;315.38;;
11039;SDS011;5573;49.592;8.662;2023-05-16T04:42:36;336.55;;;317.75;;
11039;SDS011;5573;49.592;8.662;2023-05-16T04:45:04;342.90;;;324.17;;
11039;SDS011;5573;49.592;8.662;2023-05-16T04:47:37;345.08;;;325.60;;
11039;SDS011;5573;49.592;8.662;2023-05-16T04:50:05;341.92;;;323.00;;
11039;SDS011;5573;49.592;8.662;2023-05-16T04:52:35;324.90;;;307.30;;
11039;SDS011;5573;49.592;8.662;2023-05-16T04:55:03;354.55;;;335.15;;
11039;SDS011;5573;49.592;8.662;2023-05-16T04:57:32;351.83;;;332.55;;
11039;SDS011;5573;49.592;8.662;2023-05-16T04:59:59;345.80;;;327.23;;
11039;SDS011;5573;49.592;8.662;2023-05-16T05:02:28;360.42;;;340.83;;
11039;SDS011;5573;49.592;8.662;2023-05-16T05:04:57;360.65;;;340.10;;
11039;SDS011;5573;49.592;8.662;2023-05-16T05:07:24;365.98;;;345.85;;
11039;SDS011;5573;49.592;8.662;2023-05-16T05:09:54;350.85;;;332.08;;
11039;SDS011;5573;49.592;8.662;2023-05-16T05:12:22;351.27;;;332.15;;
11039;SDS011;5573;49.592;8.662;2023-05-16T05:14:51;375.25;;;354.92;;
11039;SDS011;5573;49.592;8.662;2023-05-16T05:17:18;360.98;;;340.92;;
11039;SDS011;5573;49.592;8.662;2023-05-16T05:19:47;370.45;;;349.63;;
11039;SDS011;5573;49.592;8.662;2023-05-16T05:22:16;375.85;;;354.88;;
11039;SDS011;5573;49.592;8.662;2023-05-16T05:24:44;377.80;;;357.00;;
11039;SDS011;5573;49.592;8.662;2023-05-16T05:27:12;351.08;;;331.90;;
11039;SDS011;5573;49.592;8.662;2023-05-16T05:29:40;370.05;;;350.10;;
11039;SDS011;5573;49.592;8.662;2023-05-16T05:32:08;395.40;;;373.42;;
11039;SDS011;5573;49.592;8.662;2023-05-16T05:34:36;373.67;;;353.00;;
11039;SDS011;5573;49.592;8.662;2023-05-16T05:37:04;392.45;;;370.70;;
11039;SDS011;5573;49.592;8.662;2023-05-16T05:39:33;353.85;;;334.60;;
11039;SDS011;5573;49.592;8.662;2023-05-16T05:42:00;384.38;;;363.08;;
11039;SDS011;5573;49.592;8.662;2023-05-16T05:44:29;386.05;;;364.67;;
11039;SDS011;5573;49.592;8.662;2023-05-16T05:46:57;403.35;;;381.13;;
11039;SDS011;5573;49.592;8.662;2023-05-16T05:49:25;405.08;;;381.85;;
11039;SDS011;5573;49.592;8.662;2023-05-16T05:51:53;386.17;;;364.65;;
11039;SDS011;5573;49.592;8.662;2023-05-16T05:54:22;397.48;;;374.73;;
11039;SDS011;5573;49.592;8.662;2023-05-16T05:56:51;394.52;;;372.60;;
11039;SDS011;5573;49.592;8.662;2023-05-16T05:59:19;380.75;;;359.73;;
11039;SDS011;5573;49.592;8.662;2023-05-16T06:01:46;387.90;;;365.83;;
11039;SDS011;5573;49.592;8.662;2023-05-16T06:04:18;367.88;;;347.27;;
11039;SDS011;5573;49.592;8.662;2023-05-16T06:06:46;389.10;;;367.13;;
11039;SDS011;5573;49.592;8.662;2023-05-16T06:09:15;387.35;;;365.75;;
11039;SDS011;5573;49.592;8.662;2023-05-16T06:11:42;385.85;;;364.48;;
11039;SDS011;5573;49.592;8.662;2023-05-16T06:14:12;403.77;;;381.42;;
11039;SDS011;5573;49.592;8.662;2023-05-16T06:16:40;379.38;;;358.23;;
11039;SDS011;5573;49.592;8.662;2023-05-16T06:19:09;423.98;;;400.10;;
11039;SDS011;5573;49.592;8.662;2023-05-16T06:21:37;411.63;;;388.83;;
11039;SDS011;5573;49.592;8.662;2023-05-16T06:24:06;390.50;;;368.30;;
11039;SDS011;5573;49.592;8.662;2023-05-16T06:26:34;387.67;;;366.25;;
11039;SDS011;5573;49.592;8.662;2023-05-16T06:29:02;399.20;;;377.50;;
11039;SDS011;5573;49.592;8.662;2023-05-16T06:31:31;411.13;;;387.67;;
11039;SDS011;5573;49.592;8.662;2023-05-16T06:33:59;407.08;;;383.98;;
11039;SDS011;5573;49.592;8.662;2023-05-16T06:36:27;397.42;;;374.90;;
11039;SDS011;5573;49.592;8.662;2023-05-16T06:38:54;390.23;;;368.63;;
11039;SDS011;5573;49.592;8.662;2023-05-16T06:41:22;418.85;;;395.08;;
11039;SDS011;5573;49.592;8.662;2023-05-16T06:43:51;395.90;;;373.48;;
11039;SDS011;5573;49.592;8.662;2023-05-16T06:46:19;413.30;;;389.90;;
11039;SDS011;5573;49.592;8.662;2023-05-16T06:48:48;375.58;;;353.70;;
11039;SDS011;5573;49.592;8.662;2023-05-16T06:51:16;404.55;;;381.98;;
11039;SDS011;5573;49.592;8.662;2023-05-16T06:53:44;395.65;;;373.45;;
11039;SDS011;5573;49.592;8.662;2023-05-16T06:56:11;401.10;;;378.30;;
11039;SDS011;5573;49.592;8.662;2023-05-16T06:58:39;384.73;;;363.25;;
11039;SDS011;5573;49.592;8.662;2023-05-16T07:01:07;393.02;;;370.95;;
11039;SDS011;5573;49.592;8.662;2023-05-16T07:03:35;398.05;;;375.58;;
11039;SDS011;5573;49.592;8.662;2023-05-16T07:06:04;415.25;;;391.55;;
11039;SDS011;5573;49.592;8.662;2023-05-16T07:08:32;389.25;;;366.92;;
11039;SDS011;5573;49.592;8.662;2023-05-16T07:11:01;395.83;;;373.42;;
11039;SDS011;5573;49.592;8.662;2023-05-16T07:13:29;389.48;;;367.92;;
11039;SDS011;5573;49.592;8.662;2023-05-16T07:16:00;411.52;;;388.48;;
11039;SDS011;5573;49.592;8.662;2023-05-16T07:18:28;373.70;;;352.63;;
11039;SDS011;5573;49.592;8.662;2023-05-16T07:20:56;382.30;;;360.73;;
11039;SDS011;5573;49.592;8.662;2023-05-16T07:23:25;413.88;;;389.80;;
11039;SDS011;5573;49.592;8.662;2023-05-16T07:25:53;390.67;;;368.55;;
11039;SDS011;5573;49.592;8.662;2023-05-16T07:28:21;385.60;;;364.05;;
11039;SDS011;5573;49.592;8.662;2023-05-16T07:30:49;394.17;;;371.65;;
11039;SDS011;5573;49.592;8.662;2023-05-16T07:33:17;411.85;;;388.45;;
11039;SDS011;5573;49.592;8.662;2023-05-16T07:35:44;407.92;;;384.75;;
11039;SDS011;5573;49.592;8.662;2023-05-16T07:38:15;386.38;;;365.00;;
11039;SDS011;5573;49.592;8.662;2023-05-16T07:40:44;399.70;;;377.05;;
11039;SDS011;5573;49.592;8.662;2023-05-16T07:43:12;400.10;;;377.35;;
11039;SDS011;5573;49.592;8.662;2023-05-16T07:45:40;377.60;;;356.50;;
11039;SDS011;5573;49.592;8.662;2023-05-16T07:48:08;377.95;;;356.85;;
11039;SDS011;5573;49.592;8.662;2023-05-16T07:50:36;411.95;;;388.90;;
11039;SDS011;5573;49.592;8.662;2023-05-16T07:53:03;368.65;;;348.45;;
11039;SDS011;5573;49.592;8.662;2023-05-16T07:55:31;372.85;;;352.25;;
11039;SDS011;5573;49.592;8.662;2023-05-16T07:58:01;379.25;;;357.48;;
11039;SDS011;5573;49.592;8.662;2023-05-16T08:00:29;371.25;;;350.55;;
11039;SDS011;5573;49.592;8.662;2023-05-16T08:02:57;374.30;;;353.45;;
11039;SDS011;5573;49.592;8.662;2023-05-16T08:05:25;375.48;;;354.17;;
11039;SDS011;5573;49.592;8.662;2023-05-16T08:07:53;369.77;;;348.60;;
11039;SDS011;5573;49.592;8.662;2023-05-16T08:10:21;366.48;;;345.42;;
11039;SDS011;5573;49.592;8.662;2023-05-16T08:12:49;369.27;;;348.65;;
11039;SDS011;5573;49.592;8.662;2023-05-16T08:15:20;361.10;;;340.65;;
11039;SDS011;5573;49.592;8.662;2023-05-16T08:17:48;340.30;;;320.98;;
11039;SDS011;5573;49.592;8.662;2023-05-16T08:20:16;380.92;;;358.90;;
11039;SDS011;5573;49.592;8.662;2023-05-16T08:22:44;381.75;;;360.73;;
11039;SDS011;5573;49.592;8.662;2023-05-16T08:25:12;383.63;;;361.90;;
11039;SDS011;5573;49.592;8.662;2023-05-16T08:27:40;348.60;;;328.75;;
11039;SDS011;5573;49.592;8.662;2023-05-16T08:30:08;372.75;;;351.63;;
11039;SDS011;5573;49.592;8.662;2023-05-16T08:32:39;391.95;;;370.35;;
11039;SDS011;5573;49.592;8.662;2023-05-16T08:35:07;379.70;;;358.08;;
11039;SDS011;5573;49.592;8.662;2023-05-16T08:37:36;371.13;;;350.75;;
11039;SDS011;5573;49.592;8.662;2023-05-16T08:40:05;383.67;;;362.55;;
11039;SDS011;5573;49.592;8.662;2023-05-16T08:42:36;389.67;;;367.15;;
11039;SDS011;5573;49.592;8.662;2023-05-16T08:45:04;398.52;;;376.25;;
11039;SDS011;5573;49.592;8.662;2023-05-16T08:47:34;403.77;;;381.10;;
11039;SDS011;5573;49.592;8.662;2023-05-16T08:50:08;395.33;;;372.67;;
11039;SDS011;5573;49.592;8.662;2023-05-16T08:52:37;372.27;;;351.00;;
11039;SDS011;5573;49.592;8.662;2023-05-16T08:55:08;365.52;;;345.08;;
11039;SDS011;5573;49.592;8.662;2023-05-16T08:57:37;387.60;;;365.52;;
11039;SDS011;5573;49.592;8.662;2023-05-16T09:00:05;372.75;;;352.08;;
11039;SDS011;5573;49.592;8.662;2023-05-16T09:02:38;385.95;;;364.70;;
11039;SDS011;5573;49.592;8.662;2023-05-16T09:05:09;362.65;;;343.02;;
11039;SDS011;5573;49.592;8.662;2023-05-16T09:07:39;381.83;;;360.88;;
11039;SDS011;5573;49.592;8.662;2023-05-16T09:10:07;379.58;;;358.63;;
11039;SDS011;5573;49.592;8.662;2023-05-16T09:12:35;368.05;;;348.02;;
11039;SDS011;5573;49.592;8.662;2023-05-16T09:15:04;374.08;;;353.23;;
11039;SDS011;5573;49.592;8.662;2023-05-16T09:17:34;367.27;;;346.95;;
11039;SDS011;5573;49.592;8.662;2023-05-16T09:20:11;388.75;;;367.30;;
11039;SDS011;5573;49.592;8.662;2023-05-16T09:22:48;364.00;;;344.55;;
11039;SDS011;5573;49.592;8.662;2023-05-16T09:25:18;373.33;;;352.48;;
11039;SDS011;5573;49.592;8.662;2023-05-16T09:27:56;362.98;;;342.63;;
11039;SDS011;5573;49.592;8.662;2023-05-16T09:30:27;376.30;;;355.35;;
11039;SDS011;5573;49.592;8.662;2023-05-16T09:32:57;377.90;;;356.48;;
11039;SDS011;5573;49.592;8.662;2023-05-16T09:35:27;378.08;;;357.10;;
11039;SDS011;5573;49.592;8.662;2023-05-16T09:37:57;374.05;;;353.23;;
11039;SDS011;5573;49.592;8.662;2023-05-16T09:40:25;381.05;;;359.98;;
11039;SDS011;5573;49.592;8.662;2023-05-16T09:43:00;376.88;;;356.05;;
11039;SDS011;5573;49.592;8.662;2023-05-16T09:45:29;385.70;;;364.27;;
11039;SDS011;5573;49.592;8.662;2023-05-16T09:48:02;372.15;;;351.77;;
11039;SDS011;5573;49.592;8.662;2023-05-16T09:50:33;370.55;;;350.25;;
11039;SDS011;5573;49.592;8.662;2023-05-16T09:53:02;379.77;;;358.50;;
11039;SDS011;5573;49.592;8.662;2023-05-16T09:55:31;365.45;;;345.33;;
11039;SDS011;5573;49.592;8.662;2023-05-16T09:57:59;379.33;;;358.25;;
11039;SDS011;5573;49.592;8.662;2023-05-16T10:00:27;372.02;;;351.48;;
11039;SDS011;5573;49.592;8.662;2023-05-16T10:02:57;377.92;;;357.30;;
11039;SDS011;5573;49.592;8.662;2023-05-16T10:05:30;362.63;;;342.83;;
11039;SDS011;5573;49.592;8.662;2023-05-16T10:07:59;358.58;;;338.83;;
11039;SDS011;5573;49.592;8.662;2023-05-16T10:10:29;350.40;;;331.60;;
11039;SDS011;5573;49.592;8.662;2023-05-16T10:13:01;360.45;;;341.13;;
11039;SDS011;5573;49.592;8.662;2023-05-16T10:15:31;353.42;;;334.48;;
11039;SDS011;5573;49.592;8.662;2023-05-16T10:18:01;354.58;;;335.25;;
11039;SDS011;5573;49.592;8.662;2023-05-16T10:20:30;370.15;;;350.13;;
11039;SDS011;5573;49.592;8.662;2023-05-16T10:22:57;371.20;;;351.17;;
11039;SDS011;5573;49.592;8.662;2023-05-16T10:25:31;355.67;;;336.58;;
11039;SDS011;5573;49.592;8.662;2023-05-16T10:28:00;323.95;;;306.73;;
11039;SDS011;5573;49.592;8.662;2023-05-16T10:30:32;349.52;;;330.85;;
11039;SDS011;5573;49.592;8.662;2023-05-16T10:33:00;353.90;;;335.27;;
11039;SDS011;5573;49.592;8.662;2023-05-16T10:35:28;352.17;;;333.48;;
11039;SDS011;5573;49.592;8.662;2023-05-16T10:37:58;348.33;;;329.55;;
11039;SDS011;5573;49.592;8.662;2023-05-16T10:40:28;341.10;;;322.75;;
11039;SDS011;5573;49.592;8.662;2023-05-16T10:42:56;330.33;;;312.63;;
11039;SDS011;5573;49.592;8.662;2023-05-16T10:45:25;348.77;;;329.95;;
11039;SDS011;5573;49.592;8.662;2023-05-16T10:47:54;346.35;;;327.58;;
11039;SDS011;5573;49.592;8.662;2023-05-16T10:50:33;341.10;;;322.67;;
11039;SDS011;5573;49.592;8.662;2023-05-16T10:53:17;347.50;;;328.60;;
11039;SDS011;5573;49.592;8.662;2023-05-16T10:55:49;361.75;;;341.83;;
11039;SDS011;5573;49.592;8.662;2023-05-16T10:58:40;344.92;;;326.38;;
11039;SDS011;5573;49.592;8.662;2023-05-16T11:03:59;335.63;;;317.55;;
11039;SDS011;5573;49.592;8.662;2023-05-16T11:06:29;346.92;;;328.02;;
11039;SDS011;5573;49.592;8.662;2023-05-16T11:09:06;346.45;;;327.70;;
11039;SDS011;5573;49.592;8.662;2023-05-16T11:11:39;338.42;;;320.65;;
11039;SDS011;5573;49.592;8.662;2023-05-16T11:14:16;356.35;;;336.67;;
11039;SDS011;5573;49.592;8.662;2023-05-16T11:16:47;339.67;;;321.48;;
11039;SDS011;5573;49.592;8.662;2023-05-16T11:19:29;349.55;;;331.13;;
11039;SDS011;5573;49.592;8.662;2023-05-16T11:22:05;327.40;;;309.80;;
11039;SDS011;5573;49.592;8.662;2023-05-16T11:24:55;332.60;;;314.38;;
11039;SDS011;5573;49.592;8.662;2023-05-16T11:27:27;323.48;;;305.98;;
11039;SDS011;5573;49.592;8.662;2023-05-16T11:30:00;347.33;;;328.67;;
11039;SDS011;5573;49.592;8.662;2023-05-16T11:32:39;343.77;;;325.67;;
11039;SDS011;5573;49.592;8.662;2023-05-16T11:35:09;346.05;;;327.42;;
11039;SDS011;5573;49.592;8.662;2023-05-16T11:37:40;362.45;;;342.88;;
11039;SDS011;5573;49.592;8.662;2023-05-16T11:40:11;356.48;;;336.95;;
11039;SDS011;5573;49.592;8.662;2023-05-16T11:42:40;335.85;;;317.98;;
11039;SDS011;5573;49.592;8.662;2023-05-16T11:45:10;357.27;;;337.90;;
11039;SDS011;5573;49.592;8.662;2023-05-16T11:47:39;327.83;;;309.75;;
11039;SDS011;5573;49.592;8.662;2023-05-16T11:50:10;349.48;;;330.95;;
11039;SDS011;5573;49.592;8.662;2023-05-16T11:52:39;320.40;;;303.23;;
11039;SDS011;5573;49.592;8.662;2023-05-16T11:55:12;313.65;;;296.95;;
11039;SDS011;5573;49.592;8.662;2023-05-16T11:57:58;304.85;;;288.75;;
11039;SDS011;5573;49.592;8.662;2023-05-16T12:00:27;341.67;;;323.15;;
11039;SDS011;5573;49.592;8.662;2023-05-16T12:02:59;344.73;;;326.33;;
11039;SDS011;5573;49.592;8.662;2023-05-16T12:05:30;352.98;;;334.15;;
11039;SDS011;5573;49.592;8.662;2023-05-16T12:08:00;337.95;;;319.60;;
11039;SDS011;5573;49.592;8.662;2023-05-16T12:10:32;342.88;;;324.45;;
11039;SDS011;5573;49.592;8.662;2023-05-16T12:13:00;346.63;;;327.90;;
11039;SDS011;5573;49.592;8.662;2023-05-16T12:15:29;360.65;;;341.33;;
11039;SDS011;5573;49.592;8.662;2023-05-16T12:17:58;321.27;;;304.25;;
11039;SDS011;5573;49.592;8.662;2023-05-16T12:20:26;339.35;;;321.20;;
11039;SDS011;5573;49.592;8.662;2023-05-16T12:22:56;323.67;;;306.48;;
11039;SDS011;5573;49.592;8.662;2023-05-16T12:25:25;342.52;;;324.15;;
11039;SDS011;5573;49.592;8.662;2023-05-16T12:27:56;328.00;;;310.15;;
11039;SDS011;5573;49.592;8.662;2023-05-16T12:30:26;323.80;;;306.17;;
11039;SDS011;5573;49.592;8.662;2023-05-16T12:32:56;347.85;;;329.38;;
11039;SDS011;5573;49.592;8.662;2023-05-16T12:35:25;323.52;;;306.10;;
11039;SDS011;5573;49.592;8.662;2023-05-16T12:37:57;319.17;;;302.45;;
11039;SDS011;5573;49.592;8.662;2023-05-16T12:40:27;331.73;;;314.05;;
11039;SDS011;5573;49.592;8.662;2023-05-16T12:42:57;308.95;;;292.40;;
11039;SDS011;5573;49.592;8.662;2023-05-16T12:45:26;335.90;;;318.10;;
11039;SDS011;5573;49.592;8.662;2023-05-16T12:47:55;324.02;;;306.67;;
11039;SDS011;5573;49.592;8.662;2023-05-16T12:50:25;340.45;;;322.10;;
11039;SDS011;5573;49.592;8.662;2023-05-16T12:52:53;330.08;;;312.02;;
11039;SDS011;5573;49.592;8.662;2023-05-16T12:55:26;316.45;;;300.00;;
11039;SDS011;5573;49.592;8.662;2023-05-16T12:57:54;344.83;;;325.98;;
11039;SDS011;5573;49.592;8.662;2023-05-16T13:00:23;318.83;;;301.58;;
11039;SDS011;5573;49.592;8.662;2023-05-16T13:02:52;326.20;;;308.98;;
11039;SDS011;5573;49.592;8.662;2023-05-16T13:05:20;322.40;;;305.25;;
11039;SDS011;5573;49.592;8.662;2023-05-16T13:07:48;340.25;;;321.92;;
11039;SDS011;5573;49.592;8.662;2023-05-16T13:10:17;294.05;;;278.67;;
11039;SDS011;5573;49.592;8.662;2023-05-16T13:12:45;305.85;;;289.85;;
11039;SDS011;5573;49.592;8.662;2023-05-16T13:15:13;307.70;;;291.67;;
11039;SDS011;5573;49.592;8.662;2023-05-16T13:17:43;310.58;;;294.38;;
11039;SDS011;5573;49.592;8.662;2023-05-16T13:20:11;311.92;;;295.50;;
11039;SDS011;5573;49.592;8.662;2023-05-16T13:22:41;314.70;;;297.98;;
11039;SDS011;5573;49.592;8.662;2023-05-16T13:25:09;264.65;;;250.70;;
11039;SDS011;5573;49.592;8.662;2023-05-16T13:27:38;277.67;;;262.80;;
11039;SDS011;5573;49.592;8.662;2023-05-16T13:30:06;269.92;;;255.65;;
11039;SDS011;5573;49.592;8.662;2023-05-16T13:32:35;243.68;;;230.65;;
11039;SDS011;5573;49.592;8.662;2023-05-16T13:35:05;235.68;;;223.30;;
11039;SDS011;5573;49.592;8.662;2023-05-16T13:37:33;236.52;;;223.73;;
11039;SDS011;5573;49.592;8.662;2023-05-16T13:40:01;253.80;;;240.52;;
11039;SDS011;5573;49.592;8.662;2023-05-16T13:42:29;218.20;;;206.82;;
11039;SDS011;5573;49.592;8.662;2023-05-16T13:44:57;232.40;;;220.27;;
11039;SDS011;5573;49.592;8.662;2023-05-16T13:47:25;229.75;;;217.98;;
11039;SDS011;5573;49.592;8.662;2023-05-16T13:49:53;211.55;;;200.60;;
11039;SDS011;5573;49.592;8.662;2023-05-16T13:54:51;201.25;;;190.55;;
11039;SDS011;5573;49.592;8.662;2023-05-16T13:57:18;217.65;;;206.27;;
11039;SDS011;5573;49.592;8.662;2023-05-16T13:59:49;216.77;;;205.48;;
11039;SDS011;5573;49.592;8.662;2023-05-16T14:02:19;200.93;;;190.30;;
11039;SDS011;5573;49.592;8.662;2023-05-16T14:04:47;207.43;;;196.73;;
11039;SDS011;5573;49.592;8.662;2023-05-16T14:07:15;210.88;;;199.88;;
11039;SDS011;5573;49.592;8.662;2023-05-16T14:09:43;205.85;;;195.10;;
11039;SDS011;5573;49.592;8.662;2023-05-16T14:12:13;202.80;;;192.25;;
11039;SDS011;5573;49.592;8.662;2023-05-16T14:14:41;201.80;;;191.48;;
11039;SDS011;5573;49.592;8.662;2023-05-16T14:17:09;209.52;;;198.55;;
11039;SDS011;5573;49.592;8.662;2023-05-16T14:19:37;210.18;;;199.10;;
11039;SDS011;5573;49.592;8.662;2023-05-16T14:22:05;203.55;;;192.75;;
11039;SDS011;5573;49.592;8.662;2023-05-16T14:24:33;207.23;;;196.32;;
11039;SDS011;5573;49.592;8.662;2023-05-16T14:27:01;206.63;;;195.85;;